createdAt,value
2019-05-09T00:02:24.351Z,76.20
2019-05-09T00:04:57.608Z,76.20
2019-05-09T00:07:31.075Z,76.40
2019-05-09T00:10:06.438Z,76.60
2019-05-09T00:12:39.916Z,77.30
2019-05-09T00:15:13.785Z,76.60
2019-05-09T00:17:47.268Z,76.80
2019-05-09T00:20:23.876Z,76.60
2019-05-09T00:22:57.587Z,76.50
2019-05-09T00:25:31.115Z,76.60
2019-05-09T00:28:05.357Z,76.50
2019-05-09T00:30:58.831Z,76.50
2019-05-09T00:33:34.338Z,76.40
2019-05-09T00:36:08.095Z,76.80
2019-05-09T00:38:43.518Z,76.10
2019-05-09T00:41:17.345Z,76.10
2019-05-09T00:43:54.324Z,76.00
2019-05-09T00:46:35.267Z,75.80
2019-05-09T00:49:10.378Z,75.60
2019-05-09T00:51:43.832Z,75.50
2019-05-09T00:54:17.304Z,75.50
2019-05-09T00:56:50.760Z,75.40
2019-05-09T00:59:24.259Z,75.50
2019-05-09T01:01:57.766Z,75.60
2019-05-09T01:04:33.310Z,75.70
2019-05-09T01:07:06.488Z,75.80
2019-05-09T01:09:39.951Z,75.90
2019-05-09T01:12:14.364Z,75.90
2019-05-09T01:14:47.966Z,75.70
2019-05-09T01:17:23.914Z,75.70
2019-05-09T01:19:56.616Z,75.70
2019-05-09T01:22:30.176Z,75.60
2019-05-09T01:25:04.475Z,75.40
2019-05-09T01:27:37.948Z,75.40
2019-05-09T01:30:13.407Z,75.30
2019-05-09T01:32:54.483Z,75.30
2019-05-09T01:35:27.941Z,75.50
2019-05-09T01:38:03.435Z,75.70
2019-05-09T01:40:36.616Z,75.70
2019-05-09T01:43:10.092Z,75.60
2019-05-09T01:45:45.284Z,75.60
2019-05-09T01:48:18.768Z,75.60
2019-05-09T01:50:53.729Z,75.70
2019-05-09T01:53:29.076Z,75.70
2019-05-09T01:56:03.712Z,75.90
2019-05-09T01:58:37.692Z,76.30
2019-05-09T02:01:13.209Z,75.70
2019-05-09T02:03:46.411Z,75.70
2019-05-09T02:06:19.871Z,75.60
2019-05-09T02:08:54.556Z,75.50
2019-05-09T02:11:41.717Z,75.70
2019-05-09T02:14:04.229Z,75.90
2019-05-09T02:16:43.250Z,75.90
2019-05-09T02:19:24.264Z,76.50
2019-05-09T02:21:57.715Z,75.90
2019-05-09T02:24:31.200Z,76.00
2019-05-09T02:27:04.732Z,76.10
2019-05-09T02:29:38.275Z,76.10
2019-05-09T02:32:14.160Z,76.10
2019-05-09T02:34:46.920Z,75.90
2019-05-09T02:37:20.443Z,76.00
2019-05-09T02:39:53.907Z,75.90
2019-05-09T02:42:28.229Z,75.80
2019-05-09T02:45:01.862Z,75.70
2019-05-09T02:47:38.188Z,75.80
2019-05-09T02:50:11.133Z,75.80
2019-05-09T02:52:44.672Z,75.60
2019-05-09T02:55:18.645Z,75.40
2019-05-09T02:57:53.909Z,75.50
2019-05-09T03:00:29.135Z,75.40
2019-05-09T03:03:04.307Z,75.30
2019-05-09T03:05:38.481Z,75.30
2019-05-09T03:08:12.174Z,75.30
2019-05-09T03:10:48.797Z,75.30
2019-05-09T03:13:20.892Z,75.30
2019-05-09T03:15:58.581Z,75.30
2019-05-09T03:18:31.183Z,75.30
2019-05-09T03:21:08.934Z,75.10
2019-05-09T03:23:41.465Z,75.10
2019-05-09T03:26:19.399Z,75.10
2019-05-09T03:28:59.474Z,75.30
2019-05-09T03:31:39.399Z,75.30
2019-05-09T03:34:12.595Z,75.10
2019-05-09T03:36:47.666Z,75.10
2019-05-09T03:39:21.327Z,75.00
2019-05-09T03:41:54.799Z,74.80
2019-05-09T03:44:29.023Z,75.10
2019-05-09T03:47:09.912Z,74.90
2019-05-09T03:49:43.359Z,74.70
2019-05-09T03:52:17.779Z,74.60
2019-05-09T03:54:51.459Z,74.40
2019-05-09T03:57:28.355Z,74.40
2019-05-09T04:00:01.747Z,74.20
2019-05-09T04:02:35.288Z,74.20
2019-05-09T04:05:09.184Z,73.80
2019-05-09T04:07:42.653Z,73.70
2019-05-09T04:10:18.008Z,73.80
2019-05-09T04:12:55.716Z,73.80
2019-05-09T04:15:27.542Z,73.70
2019-05-09T04:18:01.211Z,73.60
2019-05-09T04:20:34.664Z,73.60
2019-05-09T04:23:08.144Z,73.60
2019-05-09T04:25:47.544Z,73.60
2019-05-09T04:28:21.132Z,73.80
2019-05-09T04:30:54.653Z,73.90
2019-05-09T04:33:28.149Z,73.80
2019-05-09T04:36:01.652Z,73.80
2019-05-09T04:38:35.121Z,73.50
2019-05-09T04:41:08.647Z,73.70
2019-05-09T04:43:43.886Z,73.80
2019-05-09T04:46:20.726Z,73.90
2019-05-09T04:48:54.051Z,73.70
2019-05-09T04:51:28.352Z,74.30
2019-05-09T04:54:02.070Z,74.00
2019-05-09T04:56:38.144Z,74.00
2019-05-09T04:59:12.019Z,74.00
2019-05-09T05:01:57.951Z,73.80
2019-05-09T05:04:31.013Z,73.90
2019-05-09T05:07:04.547Z,73.70
2019-05-09T05:09:38.152Z,73.60
2019-05-09T05:12:11.650Z,73.60
2019-05-09T05:14:47.443Z,73.60
2019-05-09T05:17:20.301Z,73.40
2019-05-09T05:19:54.329Z,73.60
2019-05-09T05:22:29.540Z,73.90
2019-05-09T05:25:04.103Z,74.00
2019-05-09T05:27:38.220Z,74.20
2019-05-09T05:30:12.420Z,74.40
2019-05-09T05:32:57.858Z,74.70
2019-05-09T05:35:37.596Z,74.50
2019-05-09T05:38:11.365Z,74.70
2019-05-09T05:40:46.502Z,75.10
2019-05-09T05:43:20.030Z,75.40
2019-05-09T05:45:55.207Z,75.40
2019-05-09T05:48:30.391Z,75.60
2019-05-09T05:51:03.850Z,75.80
2019-05-09T05:53:38.052Z,75.80
2019-05-09T05:56:11.828Z,75.90
2019-05-09T05:58:45.308Z,76.50
2019-05-09T06:01:19.020Z,75.90
2019-05-09T06:03:52.589Z,75.60
2019-05-09T06:06:27.962Z,75.60
2019-05-09T06:09:01.312Z,75.60
2019-05-09T06:11:34.840Z,75.60
2019-05-09T06:14:11.601Z,75.40
2019-05-09T06:16:43.597Z,75.20
2019-05-09T06:19:17.827Z,74.70
2019-05-09T06:21:52.388Z,74.30
2019-05-09T06:24:28.273Z,73.80
2019-05-09T06:27:01.516Z,73.70
2019-05-09T06:29:34.991Z,73.80
2019-05-09T06:32:08.463Z,73.50
2019-05-09T06:34:42.305Z,73.20
2019-05-09T06:37:18.164Z,73.00
2019-05-09T06:39:51.071Z,72.70
2019-05-09T06:42:25.478Z,72.80
2019-05-09T06:45:17.855Z,72.70
2019-05-09T06:47:50.974Z,72.60
2019-05-09T06:50:24.475Z,72.50
2019-05-09T06:52:58.104Z,72.20
2019-05-09T06:55:31.648Z,72.10
2019-05-09T06:58:22.715Z,71.70
2019-05-09T07:00:58.435Z,71.60
2019-05-09T07:03:37.510Z,71.50
2019-05-09T07:06:30.695Z,71.00
2019-05-09T07:09:28.001Z,70.90
2019-05-09T07:12:02.350Z,70.70
2019-05-09T07:14:41.275Z,70.10
2019-05-09T07:17:11.996Z,70.00
2019-05-09T07:19:48.561Z,69.90
2019-05-09T07:22:27.708Z,69.70
2019-05-09T07:25:07.598Z,69.20
2019-05-09T07:27:41.128Z,69.20
2019-05-09T07:30:29.522Z,68.30
2019-05-09T07:33:22.412Z,67.60
2019-05-09T07:35:58.095Z,67.30
2019-05-09T07:38:32.381Z,67.00
2019-05-09T07:41:08.616Z,66.50
2019-05-09T07:43:41.103Z,66.30
2019-05-09T07:46:29.017Z,66.40
2019-05-09T07:49:03.121Z,66.10
2019-05-09T07:51:37.333Z,65.80
2019-05-09T07:54:21.941Z,65.80
2019-05-09T07:57:05.532Z,65.70
2019-05-09T07:59:39.086Z,64.50
2019-05-09T08:02:12.639Z,65.10
2019-05-09T08:04:48.659Z,65.00
2019-05-09T08:07:21.815Z,65.00
2019-05-09T08:09:57.767Z,65.10
2019-05-09T08:12:30.464Z,65.00
2019-05-09T08:15:13.837Z,64.80
2019-05-09T08:17:40.060Z,64.80
2019-05-09T08:20:14.029Z,65.00
2019-05-09T08:22:57.189Z,64.80
2019-05-09T08:25:22.761Z,64.70
2019-05-09T08:27:58.549Z,64.60
2019-05-09T08:30:35.760Z,64.70
2019-05-09T08:33:08.272Z,64.80
2019-05-09T08:35:41.791Z,64.70
2019-05-09T08:38:17.686Z,64.80
2019-05-09T08:40:52.137Z,64.70
2019-05-09T08:43:25.651Z,65.00
2019-05-09T08:45:59.173Z,65.10
2019-05-09T08:48:32.700Z,65.20
2019-05-09T08:51:08.903Z,65.20
2019-05-09T08:53:42.792Z,65.70
2019-05-09T08:56:17.791Z,65.90
2019-05-09T08:58:51.579Z,66.10
2019-05-09T09:01:34.578Z,66.50
2019-05-09T09:04:00.656Z,66.70
2019-05-09T09:06:34.115Z,66.90
2019-05-09T09:09:08.187Z,67.10
2019-05-09T09:11:42.019Z,67.50
2019-05-09T09:14:15.433Z,68.00
2019-05-09T09:16:48.849Z,68.10
2019-05-09T09:19:22.293Z,68.40
2019-05-09T09:22:00.217Z,68.50
2019-05-09T09:24:30.886Z,68.70
2019-05-09T09:27:04.441Z,69.00
2019-05-09T09:29:38.218Z,69.30
2019-05-09T09:32:11.964Z,70.10
2019-05-09T09:34:48.248Z,69.20
2019-05-09T09:37:20.552Z,68.80
2019-05-09T09:39:53.994Z,68.10
2019-05-09T09:42:28.257Z,67.30
2019-05-09T09:45:02.145Z,67.10
2019-05-09T09:47:39.579Z,66.90
2019-05-09T09:50:12.047Z,66.70
2019-05-09T09:52:45.471Z,66.80
2019-05-09T09:55:18.909Z,66.80
2019-05-09T09:57:52.315Z,66.40
2019-05-09T10:00:42.540Z,66.60
2019-05-09T10:03:18.433Z,66.30
2019-05-09T10:05:51.119Z,65.80
2019-05-09T10:08:24.564Z,65.80
2019-05-09T10:10:58.958Z,66.20
2019-05-09T10:13:32.664Z,65.60
2019-05-09T10:16:13.142Z,65.30
2019-05-09T10:18:53.148Z,65.30
2019-05-09T10:21:34.389Z,65.10
2019-05-09T10:24:08.067Z,65.40
2019-05-09T10:26:43.439Z,65.70
2019-05-09T10:29:17.756Z,66.00
2019-05-09T10:31:51.520Z,66.10
2019-05-09T10:34:24.959Z,66.40
2019-05-09T10:36:58.448Z,66.30
2019-05-09T10:39:31.880Z,66.20
2019-05-09T10:42:12.753Z,66.00
2019-05-09T10:44:53.539Z,66.20
2019-05-09T10:47:28.600Z,66.10
2019-05-09T10:50:02.061Z,66.40
2019-05-09T10:52:35.476Z,65.90
2019-05-09T10:55:09.449Z,65.00
2019-05-09T10:57:43.421Z,64.00
2019-05-09T11:00:18.413Z,63.60
2019-05-09T11:02:52.200Z,63.50
2019-05-09T11:05:27.672Z,63.40
2019-05-09T11:08:00.783Z,63.20
2019-05-09T11:10:34.200Z,62.80
2019-05-09T11:13:07.726Z,62.70
2019-05-09T11:15:41.313Z,62.70
2019-05-09T11:18:14.703Z,62.90
2019-05-09T11:20:48.132Z,63.00
2019-05-09T11:23:21.580Z,63.20
2019-05-09T11:25:55.259Z,63.50
2019-05-09T11:28:28.727Z,64.00
2019-05-09T11:31:02.176Z,64.40
2019-05-09T11:33:38.423Z,65.00
2019-05-09T11:36:10.986Z,65.00
2019-05-09T11:38:44.761Z,64.90
2019-05-09T11:41:19.326Z,64.90
2019-05-09T11:43:53.189Z,65.00
2019-05-09T11:46:28.842Z,65.20
2019-05-09T11:49:01.793Z,65.20
2019-05-09T11:51:35.280Z,65.00
2019-05-09T11:54:09.253Z,65.20
2019-05-09T11:56:43.097Z,65.40
2019-05-09T11:59:18.260Z,65.80
2019-05-09T12:01:51.674Z,65.70
2019-05-09T12:04:25.083Z,65.70
2019-05-09T12:06:58.515Z,65.70
2019-05-09T12:09:31.932Z,65.60
2019-05-09T12:12:05.374Z,65.30
2019-05-09T12:14:38.784Z,65.50
2019-05-09T12:17:12.208Z,65.60
2019-05-09T12:19:45.636Z,65.50
2019-05-09T12:22:19.429Z,65.30
2019-05-09T12:24:54.012Z,65.20
2019-05-09T12:27:28.160Z,65.10
2019-05-09T12:30:01.710Z,64.60
2019-05-09T12:32:35.142Z,65.00
2019-05-09T12:35:09.189Z,64.60
2019-05-09T12:37:42.636Z,64.30
2019-05-09T12:40:19.766Z,64.30
2019-05-09T12:42:52.665Z,64.10
2019-05-09T12:45:26.160Z,64.20
2019-05-09T12:48:10.986Z,64.30
2019-05-09T12:50:34.728Z,64.30
2019-05-09T12:53:08.158Z,64.00
2019-05-09T12:55:41.567Z,64.00
2019-05-09T12:58:30.009Z,63.70
2019-05-09T13:01:03.421Z,63.50
2019-05-09T13:03:38.207Z,63.60
2019-05-09T13:06:12.051Z,64.00
2019-05-09T13:08:45.481Z,64.20
2019-05-09T13:11:20.186Z,64.50
2019-05-09T13:13:53.808Z,64.60
2019-05-09T13:16:47.481Z,64.60
2019-05-09T13:19:11.468Z,64.70
2019-05-09T13:21:44.884Z,65.20
2019-05-09T13:24:19.622Z,66.00
2019-05-09T13:26:53.800Z,66.60
2019-05-09T13:29:29.487Z,67.60
2019-05-09T13:32:02.412Z,68.20
2019-05-09T13:34:38.074Z,68.50
2019-05-09T13:37:10.990Z,68.90
2019-05-09T13:39:44.412Z,69.00
2019-05-09T13:42:19.624Z,69.20
2019-05-09T13:44:52.990Z,70.20
2019-05-09T13:47:28.002Z,69.70
2019-05-09T13:50:01.731Z,70.00
2019-05-09T13:52:35.148Z,70.20
2019-05-09T13:55:09.034Z,70.50
2019-05-09T13:57:42.440Z,71.30
2019-05-09T14:00:18.475Z,71.70
2019-05-09T14:02:52.289Z,72.10
2019-05-09T14:05:25.724Z,73.10
2019-05-09T14:08:03.600Z,73.00
2019-05-09T14:10:34.373Z,73.20
2019-05-09T14:13:12.871Z,73.50
2019-05-09T14:15:44.080Z,73.50
2019-05-09T14:18:19.081Z,73.50
2019-05-09T14:20:52.965Z,73.90
2019-05-09T14:23:34.730Z,74.20
2019-05-09T14:26:01.552Z,74.40
2019-05-09T14:28:34.972Z,74.90
2019-05-09T14:31:08.403Z,75.60
2019-05-09T14:33:41.819Z,75.20
2019-05-09T14:36:15.243Z,75.40
2019-05-09T14:38:48.666Z,75.30
2019-05-09T14:41:22.168Z,75.50
2019-05-09T14:43:55.623Z,75.90
2019-05-09T14:46:29.053Z,76.00
2019-05-09T14:49:09.293Z,76.20
2019-05-09T14:51:42.736Z,76.40
2019-05-09T14:54:16.297Z,76.70
2019-05-09T14:56:49.772Z,77.00
2019-05-09T14:59:23.188Z,77.30
2019-05-09T15:01:59.128Z,77.60
2019-05-09T15:04:31.929Z,77.70
2019-05-09T15:07:07.479Z,77.80
2019-05-09T15:09:40.585Z,77.80
2019-05-09T15:12:14.024Z,77.70
2019-05-09T15:14:48.053Z,77.80
2019-05-09T15:17:21.925Z,77.80
2019-05-09T15:20:00.097Z,77.90
2019-05-09T15:22:30.492Z,78.50
2019-05-09T15:25:08.560Z,77.80
2019-05-09T15:27:44.108Z,77.80
2019-05-09T15:30:18.525Z,77.80
2019-05-09T15:32:52.082Z,77.90
2019-05-09T15:35:28.015Z,77.90
2019-05-09T15:38:00.992Z,78.00
2019-05-09T15:40:34.424Z,78.00
2019-05-09T15:43:08.366Z,78.00
2019-05-09T15:45:43.704Z,78.30
2019-05-09T15:48:18.087Z,78.00
2019-05-09T15:50:51.744Z,78.10
2019-05-09T15:53:25.160Z,78.30
2019-05-09T15:55:58.841Z,78.30
2019-05-09T15:58:32.496Z,78.10
2019-05-09T16:01:08.233Z,78.20
2019-05-09T16:03:41.077Z,78.30
2019-05-09T16:06:14.509Z,78.10
2019-05-09T16:08:47.957Z,78.90
2019-05-09T16:11:21.450Z,78.30
2019-05-09T16:13:54.864Z,78.50
2019-05-09T16:16:28.753Z,78.50
2019-05-09T16:19:02.488Z,78.50
2019-05-09T16:21:38.113Z,78.80
2019-05-09T16:24:11.062Z,79.20
2019-05-09T16:26:44.492Z,79.50
2019-05-09T16:29:18.062Z,79.60
2019-05-09T16:31:51.492Z,79.90
2019-05-09T16:34:24.908Z,80.00
2019-05-09T16:36:58.512Z,79.80
2019-05-09T16:39:31.976Z,80.00
2019-05-09T16:42:05.962Z,79.80
2019-05-09T16:44:41.730Z,80.30
2019-05-09T16:47:14.524Z,80.60
2019-05-09T16:49:47.944Z,80.90
2019-05-09T16:52:21.433Z,81.00
2019-05-09T16:54:58.521Z,81.10
2019-05-09T16:57:32.103Z,81.00
2019-05-09T17:00:09.860Z,81.10
2019-05-09T17:02:43.292Z,80.90
2019-05-09T17:05:17.456Z,80.30
2019-05-09T17:07:52.347Z,80.30
2019-05-09T17:10:25.984Z,80.70
2019-05-09T17:12:59.409Z,80.30
2019-05-09T17:15:32.893Z,80.30
2019-05-09T17:18:07.357Z,80.20
2019-05-09T17:20:55.099Z,80.40
2019-05-09T17:23:29.827Z,80.30
2019-05-09T17:26:03.297Z,80.50
2019-05-09T17:28:37.625Z,80.30
2019-05-09T17:31:11.400Z,80.30
2019-05-09T17:33:44.828Z,80.30
2019-05-09T17:36:18.378Z,80.20
2019-05-09T17:38:51.841Z,80.20
2019-05-09T17:41:25.356Z,79.90
2019-05-09T17:43:58.788Z,79.50
2019-05-09T17:46:32.209Z,79.30
2019-05-09T17:49:08.101Z,79.20
2019-05-09T17:51:40.849Z,79.20
2019-05-09T17:54:14.280Z,79.00
2019-05-09T17:56:48.431Z,78.80
2019-05-09T17:59:22.124Z,78.80
2019-05-09T18:01:57.788Z,78.90
2019-05-09T18:04:30.692Z,78.90
2019-05-09T18:07:04.103Z,78.60
2019-05-09T18:09:37.624Z,78.70
2019-05-09T18:12:11.044Z,78.50
2019-05-09T18:14:44.483Z,78.10
2019-05-09T18:17:18.286Z,78.10
2019-05-09T18:19:51.708Z,78.10
2019-05-09T18:22:25.138Z,78.30
2019-05-09T18:24:58.555Z,78.40
2019-05-09T18:27:31.979Z,78.50
2019-05-09T18:30:09.632Z,78.70
2019-05-09T18:32:50.650Z,78.70
2019-05-09T18:35:27.732Z,78.50
2019-05-09T18:38:01.763Z,78.80
2019-05-09T18:40:35.187Z,78.60
2019-05-09T18:43:08.629Z,78.60
2019-05-09T18:45:42.059Z,78.70
2019-05-09T18:48:15.489Z,78.80
2019-05-09T18:50:48.907Z,78.90
2019-05-09T18:53:22.344Z,78.70
2019-05-09T18:55:55.768Z,78.90
2019-05-09T18:58:29.215Z,79.00
2019-05-09T19:01:02.656Z,79.10
2019-05-09T19:03:37.573Z,79.20
2019-05-09T19:06:10.983Z,79.30
2019-05-09T19:08:44.414Z,79.30
2019-05-09T19:11:17.828Z,79.40
2019-05-09T19:13:51.274Z,79.40
2019-05-09T19:16:29.022Z,79.50
2019-05-09T19:19:21.850Z,79.70
2019-05-09T19:21:56.930Z,79.70
2019-05-09T19:24:30.373Z,79.60
2019-05-09T19:27:03.839Z,79.70
2019-05-09T19:29:37.291Z,80.00
2019-05-09T19:32:10.709Z,80.00
2019-05-09T19:34:44.142Z,80.10
2019-05-09T19:37:17.639Z,81.00
2019-05-09T19:39:51.060Z,80.30
2019-05-09T19:42:24.479Z,80.70
2019-05-09T19:44:57.907Z,80.80
2019-05-09T19:47:31.336Z,80.90
2019-05-09T19:50:07.800Z,81.30
2019-05-09T19:52:41.220Z,81.30
2019-05-09T19:55:14.720Z,81.50
2019-05-09T19:57:48.144Z,82.10
2019-05-09T20:00:21.908Z,82.20
2019-05-09T20:02:55.334Z,82.10
2019-05-09T20:05:28.764Z,81.90
2019-05-09T20:08:02.186Z,81.70
2019-05-09T20:10:43.231Z,81.50
2019-05-09T20:13:18.292Z,81.50
2019-05-09T20:15:51.731Z,81.20
2019-05-09T20:18:25.147Z,81.20
2019-05-09T20:20:58.581Z,81.10
2019-05-09T20:23:32.432Z,81.10
2019-05-09T20:26:05.865Z,81.50
2019-05-09T20:28:39.280Z,80.80
2019-05-09T20:31:12.705Z,80.50
2019-05-09T20:33:46.222Z,80.40
2019-05-09T20:36:19.705Z,80.30
2019-05-09T20:38:53.556Z,80.20
2019-05-09T20:41:27.305Z,80.10
2019-05-09T20:44:00.904Z,79.90
2019-05-09T20:46:34.520Z,80.60
2019-05-09T20:49:08.161Z,79.80
2019-05-09T20:51:41.861Z,79.80
2019-05-09T20:54:20.950Z,79.70
2019-05-09T20:56:50.871Z,80.40
2019-05-09T20:59:24.544Z,79.80
2019-05-09T21:01:58.160Z,79.50
2019-05-09T21:04:31.763Z,79.60
2019-05-09T21:07:05.390Z,79.60
2019-05-09T21:09:38.979Z,79.60
2019-05-09T21:12:12.616Z,79.60
2019-05-09T21:14:46.224Z,79.60
2019-05-09T21:17:19.904Z,79.60
2019-05-09T21:19:53.528Z,79.60
2019-05-09T21:22:27.156Z,79.60
2019-05-09T21:25:00.758Z,79.50
2019-05-09T21:27:34.648Z,79.60
2019-05-09T21:30:09.006Z,79.50
2019-05-09T21:32:42.755Z,79.60
2019-05-09T21:35:16.248Z,79.80
2019-05-09T21:37:49.672Z,79.80
2019-05-09T21:40:23.089Z,79.80
2019-05-09T21:42:56.515Z,79.70
2019-05-09T21:45:29.950Z,80.20
2019-05-09T21:48:03.426Z,79.60
2019-05-09T21:50:36.843Z,79.60
2019-05-09T21:53:10.279Z,79.60
2019-05-09T21:55:43.696Z,79.50
2019-05-09T21:58:17.142Z,79.50
2019-05-09T22:00:53.064Z,79.40
2019-05-09T22:03:26.566Z,79.40
2019-05-09T22:05:59.993Z,79.50
2019-05-09T22:08:33.415Z,79.30
2019-05-09T22:11:06.834Z,79.30
2019-05-09T22:13:40.272Z,79.30
2019-05-09T22:16:13.694Z,79.20
2019-05-09T22:18:47.124Z,79.20
2019-05-09T22:21:23.564Z,79.20
2019-05-09T22:23:57.314Z,78.90
2019-05-09T22:26:30.989Z,79.00
2019-05-09T22:29:04.420Z,79.20
2019-05-09T22:31:37.844Z,79.20
2019-05-09T22:34:11.405Z,79.10
2019-05-09T22:36:44.904Z,79.10
2019-05-09T22:39:18.312Z,79.10
2019-05-09T22:41:51.743Z,78.90
2019-05-09T22:44:25.167Z,78.90
2019-05-09T22:46:58.599Z,78.80
2019-05-09T22:49:32.011Z,78.80
2019-05-09T22:52:05.534Z,78.80
2019-05-09T22:54:38.947Z,78.80
2019-05-09T22:57:12.389Z,78.50
2019-05-09T22:59:45.840Z,78.50
2019-05-09T23:02:19.256Z,78.40
2019-05-09T23:04:52.677Z,78.40
2019-05-09T23:07:26.107Z,78.40
2019-05-09T23:09:59.529Z,78.40
2019-05-09T23:12:32.961Z,78.30
2019-05-09T23:15:08.966Z,78.20
2019-05-09T23:17:42.396Z,79.00
2019-05-09T23:20:23.753Z,78.20
2019-05-09T23:22:57.268Z,78.00
2019-05-09T23:25:30.690Z,77.90
2019-05-09T23:28:04.498Z,78.00
2019-05-09T23:30:37.907Z,77.80
2019-05-09T23:33:11.343Z,77.80
2019-05-09T23:35:44.768Z,77.70
2019-05-09T23:38:18.195Z,77.70
2019-05-09T23:40:51.610Z,77.70
2019-05-09T23:43:25.053Z,77.80
2019-05-09T23:45:58.487Z,77.50
2019-05-09T23:48:31.923Z,77.50
2019-05-09T23:51:05.335Z,77.50
2019-05-09T23:53:39.100Z,77.50
2019-05-09T23:56:30.708Z,77.40
2019-05-09T23:59:21.870Z,77.30
